Time;durP1;ratioP1;P1;durP2;ratioP2;P2;SDS_P1;SDS_P2;PMS_P1;PMS_P2;Temp;Humidity;BMP_temperature;BMP_pressure;BME280_temperature;BME280_humidity;BME280_pressure;Samples;Min_cycle;Max_cycle;Signal;HPM_P1;HPM_P2
2022/03/25 00:00:12;;;;;;;41.22;25.23;;;9.50;99.90;;;;;;5018737;28;20167;-48
2022/03/25 00:02:39;;;;;;;37.35;24.27;;;9.50;99.90;;;;;;5018952;28;20203;-48
2022/03/25 00:05:05;;;;;;;36.17;23.55;;;9.40;99.90;;;;;;5018742;28;20250;-48
2022/03/25 00:07:32;;;;;;;42.20;25.67;;;9.40;99.90;;;;;;5018771;28;20212;-49
2022/03/25 00:09:58;;;;;;;36.08;22.77;;;9.40;99.90;;;;;;5018838;28;20203;-48
2022/03/25 00:12:23;;;;;;;33.55;22.90;;;9.30;99.90;;;;;;5018849;28;20726;-48
2022/03/25 00:14:49;;;;;;;39.90;25.35;;;9.30;99.90;;;;;;5017244;28;20175;-48
2022/03/25 00:17:14;;;;;;;39.25;23.83;;;9.30;99.90;;;;;;5018550;28;20182;-48
2022/03/25 00:19:40;;;;;;;38.30;24.67;;;9.20;99.90;;;;;;5018535;28;20171;-48
2022/03/25 00:22:05;;;;;;;38.53;25.15;;;9.20;99.90;;;;;;5018561;28;20180;-49
2022/03/25 00:24:31;;;;;;;38.90;24.55;;;9.10;99.90;;;;;;5018488;28;20171;-49
2022/03/25 00:26:56;;;;;;;38.40;24.90;;;9.10;99.90;;;;;;5018450;28;20584;-48
2022/03/25 00:29:22;;;;;;;37.85;24.13;;;9.10;99.90;;;;;;5018728;28;20178;-50
2022/03/25 00:31:47;;;;;;;36.10;24.17;;;9.00;99.90;;;;;;5018505;28;20296;-49
2022/03/25 00:34:13;;;;;;;40.35;24.50;;;9.00;99.90;;;;;;5018378;28;20172;-49
2022/03/25 00:36:38;;;;;;;40.22;24.27;;;9.00;99.90;;;;;;5018507;28;20174;-48
2022/03/25 00:39:04;;;;;;;41.95;24.85;;;9.00;99.90;;;;;;5018281;28;20164;-48
2022/03/25 00:41:31;;;;;;;37.92;25.25;;;8.90;99.90;;;;;;5018540;28;20175;-48
2022/03/25 00:43:57;;;;;;;42.75;24.48;;;8.90;99.90;;;;;;5018596;28;20577;-48
2022/03/25 00:46:22;;;;;;;37.67;24.33;;;8.90;99.90;;;;;;5018587;28;20215;-48
2022/03/25 00:48:48;;;;;;;39.92;24.42;;;8.90;99.90;;;;;;5018286;28;20187;-48
2022/03/25 00:51:13;;;;;;;38.15;23.67;;;8.90;99.90;;;;;;5018278;28;20191;-48
2022/03/25 00:53:39;;;;;;;35.13;23.30;;;8.90;99.90;;;;;;5016931;28;20531;-48
2022/03/25 00:56:05;;;;;;;33.45;23.35;;;8.80;99.90;;;;;;5018242;28;20175;-48
2022/03/25 00:58:32;;;;;;;39.60;24.38;;;8.80;99.90;;;;;;5018383;28;20182;-48
2022/03/25 01:00:58;;;;;;;40.30;24.20;;;8.80;99.90;;;;;;5018200;28;20187;-48
2022/03/25 01:03:23;;;;;;;38.67;23.05;;;8.70;99.90;;;;;;5017562;28;20612;-46
2022/03/25 01:05:49;;;;;;;36.72;22.90;;;8.70;99.90;;;;;;5015113;28;20172;-47
2022/03/25 01:08:15;;;;;;;35.22;22.98;;;8.70;99.90;;;;;;5015034;28;20168;-47
2022/03/25 01:10:41;;;;;;;36.13;23.88;;;8.70;99.90;;;;;;5014889;28;20176;-47
2022/03/25 01:13:07;;;;;;;35.95;22.55;;;8.60;99.90;;;;;;5014983;28;20179;-46
2022/03/25 01:15:33;;;;;;;35.17;21.13;;;8.60;99.90;;;;;;5015086;28;20164;-46
2022/03/25 01:17:59;;;;;;;40.75;23.80;;;8.60;99.90;;;;;;5014823;28;20176;-48
2022/03/25 01:20:24;;;;;;;40.00;24.85;;;8.50;99.90;;;;;;5015174;28;20167;-46
2022/03/25 01:22:50;;;;;;;41.05;26.10;;;8.30;99.90;;;;;;5015082;28;20643;-46
2022/03/25 01:25:16;;;;;;;40.47;25.02;;;8.40;99.90;;;;;;5014719;28;20642;-47
2022/03/25 01:27:43;;;;;;;34.42;23.80;;;8.40;99.90;;;;;;5014650;28;20702;-46
2022/03/25 01:30:10;;;;;;;43.55;25.00;;;8.40;99.90;;;;;;5014837;28;20256;-46
2022/03/25 01:32:36;;;;;;;40.22;24.80;;;8.40;99.90;;;;;;5014594;28;20215;-47
2022/03/25 01:35:02;;;;;;;43.40;25.35;;;8.40;99.90;;;;;;5014770;28;20531;-46
2022/03/25 01:37:29;;;;;;;41.40;25.48;;;8.40;99.90;;;;;;5014366;28;20176;-46
2022/03/25 01:39:55;;;;;;;42.83;25.67;;;8.30;99.90;;;;;;5014706;28;20183;-46
2022/03/25 01:42:34;;;;;;;39.88;24.40;;;8.30;99.90;;;;;;5014646;28;20172;-46
2022/03/25 01:45:01;;;;;;;36.28;23.05;;;8.20;99.90;;;;;;5014334;28;20628;-46
2022/03/25 01:47:28;;;;;;;40.35;25.23;;;8.20;99.90;;;;;;5014196;28;20726;-46
2022/03/25 01:49:55;;;;;;;34.63;23.98;;;8.20;99.90;;;;;;5014863;28;20201;-46
2022/03/25 01:52:21;;;;;;;41.42;24.70;;;8.20;99.90;;;;;;5014344;28;20286;-46
2022/03/25 01:54:47;;;;;;;36.08;23.40;;;8.10;99.90;;;;;;5014056;28;20620;-46
2022/03/25 01:57:12;;;;;;;42.58;23.95;;;8.10;99.90;;;;;;5014035;28;20527;-47
2022/03/25 01:59:38;;;;;;;39.25;22.60;;;8.10;99.90;;;;;;5014305;28;20175;-46
2022/03/25 02:02:06;;;;;;;40.15;23.73;;;8.00;99.90;;;;;;5013974;28;20172;-46
2022/03/25 02:04:32;;;;;;;31.42;20.27;;;7.90;99.90;;;;;;5013956;28;20585;-47
2022/03/25 02:06:58;;;;;;;33.17;19.85;;;7.90;99.90;;;;;;5014230;28;20171;-48
2022/03/25 02:09:27;;;;;;;37.90;24.40;;;7.90;99.90;;;;;;5014203;28;20164;-49
2022/03/25 02:11:53;;;;;;;38.08;23.60;;;7.80;99.90;;;;;;5013967;28;20698;-48
2022/03/25 02:14:19;;;;;;;41.13;24.95;;;7.80;99.90;;;;;;5013993;28;20508;-48
2022/03/25 02:16:47;;;;;;;41.20;25.55;;;7.90;99.90;;;;;;5012663;28;20179;-47
2022/03/25 02:19:18;;;;;;;38.55;23.83;;;7.90;99.90;;;;;;5013600;28;20251;-47
2022/03/25 02:21:45;;;;;;;35.65;22.65;;;7.90;99.90;;;;;;5013614;28;20168;-48
2022/03/25 02:24:12;;;;;;;39.28;23.75;;;7.80;99.90;;;;;;5013855;28;20178;-49
2022/03/25 02:26:38;;;;;;;37.75;23.60;;;7.80;99.90;;;;;;5013522;28;20591;-49
2022/03/25 02:29:07;;;;;;;36.00;23.35;;;7.70;99.90;;;;;;5012251;28;20199;-49
2022/03/25 02:31:33;;;;;;;39.60;23.27;;;7.70;99.90;;;;;;5012131;28;20679;-49
2022/03/25 02:34:04;;;;;;;37.10;23.63;;;7.70;99.90;;;;;;5013429;28;20207;-49
2022/03/25 02:36:38;;;;;;;35.30;22.90;;;7.70;99.90;;;;;;5013360;28;20172;-49
2022/03/25 02:39:05;;;;;;;36.15;23.35;;;7.70;99.90;;;;;;5012058;28;20171;-49
2022/03/25 02:41:31;;;;;;;36.78;21.90;;;7.70;99.90;;;;;;5013275;28;20172;-49
2022/03/25 02:43:57;;;;;;;33.05;20.92;;;7.70;99.90;;;;;;5013185;28;20279;-46
2022/03/25 02:46:22;;;;;;;41.20;22.38;;;7.60;99.90;;;;;;5013473;28;20764;-46
2022/03/25 02:48:48;;;;;;;39.67;22.80;;;7.70;99.90;;;;;;5013168;28;20630;-46
2022/03/25 02:51:13;;;;;;;43.28;24.17;;;7.60;99.90;;;;;;5013016;28;20204;-45
2022/03/25 02:53:39;;;;;;;39.80;23.77;;;7.50;99.90;;;;;;5011743;28;20164;-46
2022/03/25 02:56:05;;;;;;;40.15;22.98;;;7.50;99.90;;;;;;5013320;28;20568;-46
2022/03/25 02:58:30;;;;;;;42.80;23.48;;;7.50;99.90;;;;;;5013153;28;20239;-46
2022/03/25 03:00:56;;;;;;;43.35;24.33;;;7.50;99.90;;;;;;5012931;28;20532;-46
2022/03/25 03:03:21;;;;;;;46.38;25.17;;;7.40;99.90;;;;;;5013183;28;20631;-46
2022/03/25 03:05:47;;;;;;;46.75;24.45;;;7.40;99.90;;;;;;5012853;28;20659;-45
2022/03/25 03:08:14;;;;;;;48.08;25.95;;;7.40;99.90;;;;;;5012797;28;20179;-46
2022/03/25 03:10:40;;;;;;;45.55;25.13;;;7.40;99.90;;;;;;5012795;28;20183;-47
2022/03/25 03:13:06;;;;;;;40.47;24.90;;;7.40;99.90;;;;;;5012692;28;20208;-46
2022/03/25 03:15:32;;;;;;;40.55;24.00;;;7.40;99.90;;;;;;5012951;28;20200;-46
2022/03/25 03:17:58;;;;;;;41.75;23.15;;;7.40;99.90;;;;;;5012909;28;20572;-46
2022/03/25 03:20:24;;;;;;;46.67;24.73;;;7.40;99.90;;;;;;5012910;28;20630;-46
2022/03/25 03:22:50;;;;;;;42.83;26.50;;;7.30;99.90;;;;;;5012620;28;20574;-47
2022/03/25 03:25:15;;;;;;;43.85;25.45;;;7.20;99.90;;;;;;5012571;28;20172;-46
2022/03/25 03:27:41;;;;;;;44.95;25.13;;;7.30;99.90;;;;;;5012191;28;20180;-47
2022/03/25 03:30:09;;;;;;;40.42;25.05;;;7.30;99.90;;;;;;5012769;28;20251;-49
2022/03/25 03:32:36;;;;;;;42.30;24.42;;;7.30;99.90;;;;;;5012368;28;20684;-47
2022/03/25 03:35:03;;;;;;;42.85;24.95;;;7.30;99.90;;;;;;5012453;28;20164;-48
2022/03/25 03:37:29;;;;;;;40.30;24.30;;;7.30;99.90;;;;;;5012324;28;20314;-47
2022/03/25 03:39:54;;;;;;;42.47;26.02;;;7.20;99.90;;;;;;5012671;28;20668;-49
2022/03/25 03:42:20;;;;;;;39.80;23.20;;;7.30;99.90;;;;;;5012885;28;20651;-48
2022/03/25 03:44:45;;;;;;;36.55;23.48;;;7.20;99.90;;;;;;5012353;28;20176;-48
2022/03/25 03:47:12;;;;;;;39.42;23.02;;;7.20;99.90;;;;;;5012160;28;20560;-48
2022/03/25 03:49:39;;;;;;;39.20;21.60;;;7.10;99.90;;;;;;5012254;28;20168;-48
2022/03/25 03:52:05;;;;;;;39.30;22.20;;;7.00;99.90;;;;;;5010985;28;20672;-49
2022/03/25 03:54:34;;;;;;;40.25;22.95;;;7.00;99.90;;;;;;5012243;28;20254;-48
2022/03/25 03:56:59;;;;;;;41.45;22.65;;;6.90;99.90;;;;;;5012203;28;20242;-48
2022/03/25 03:59:25;;;;;;;37.78;24.02;;;6.90;99.90;;;;;;5012471;28;20175;-48
2022/03/25 04:01:51;;;;;;;44.30;24.73;;;6.90;99.90;;;;;;5012419;28;20582;-48
2022/03/25 04:04:17;;;;;;;47.22;26.50;;;6.90;99.90;;;;;;5012456;28;20666;-48
2022/03/25 04:06:43;;;;;;;41.35;25.23;;;6.80;99.90;;;;;;5012374;28;20188;-48
2022/03/25 04:09:09;;;;;;;43.15;25.08;;;6.80;99.90;;;;;;5012209;28;20686;-47
2022/03/25 04:11:34;;;;;;;36.22;23.30;;;6.80;99.90;;;;;;5011969;28;20211;-45
2022/03/25 04:14:00;;;;;;;43.58;23.92;;;6.80;99.90;;;;;;5012063;28;20168;-46
2022/03/25 04:16:25;;;;;;;39.25;23.77;;;6.70;99.90;;;;;;5011942;28;20169;-46
2022/03/25 04:18:51;;;;;;;38.70;24.02;;;6.70;99.90;;;;;;5012319;28;20179;-47
2022/03/25 04:21:17;;;;;;;44.58;25.58;;;6.70;99.90;;;;;;5011983;28;20621;-46
2022/03/25 04:23:42;;;;;;;49.60;25.92;;;6.70;99.90;;;;;;5011894;28;20179;-46
2022/03/25 04:26:08;;;;;;;45.67;27.08;;;6.70;99.90;;;;;;5011945;28;20183;-46
2022/03/25 04:28:34;;;;;;;48.15;26.05;;;6.60;99.90;;;;;;5011924;28;20222;-47
2022/03/25 04:31:00;;;;;;;39.92;23.48;;;6.60;99.90;;;;;;5011872;28;20227;-46
2022/03/25 04:33:25;;;;;;;40.88;24.17;;;6.60;99.90;;;;;;5012176;28;20612;-46
2022/03/25 04:35:51;;;;;;;37.83;24.98;;;6.60;99.90;;;;;;5012211;28;20179;-47
2022/03/25 04:38:16;;;;;;;47.15;26.08;;;6.60;99.90;;;;;;5011877;28;20176;-46
2022/03/25 04:40:42;;;;;;;49.38;27.08;;;6.60;99.90;;;;;;5013575;28;20176;-47
2022/03/25 04:43:08;;;;;;;43.30;24.67;;;6.60;99.90;;;;;;5015526;28;20250;-46
2022/03/25 04:45:34;;;;;;;48.53;26.23;;;6.60;99.90;;;;;;5015363;28;20175;-46
2022/03/25 04:48:00;;;;;;;42.65;25.92;;;6.50;99.90;;;;;;5015474;28;20194;-46
2022/03/25 04:50:27;;;;;;;48.42;25.00;;;6.50;99.90;;;;;;5015373;28;20164;-46
2022/03/25 04:52:53;;;;;;;43.08;25.63;;;6.50;99.90;;;;;;5015552;28;20200;-47
2022/03/25 04:55:19;;;;;;;39.85;21.45;;;6.50;99.90;;;;;;5015195;28;20219;-46
2022/03/25 04:57:45;;;;;;;38.60;22.92;;;6.40;99.90;;;;;;5015190;28;20624;-46
2022/03/25 05:00:12;;;;;;;42.60;23.50;;;6.40;99.90;;;;;;5015309;28;20223;-47
2022/03/25 05:02:38;;;;;;;37.90;22.50;;;6.30;99.90;;;;;;5015237;28;20172;-48
2022/03/25 05:05:04;;;;;;;42.15;24.40;;;6.40;99.90;;;;;;5015163;28;20168;-46
2022/03/25 05:07:30;;;;;;;38.22;23.27;;;6.40;99.90;;;;;;5014978;28;20183;-47
2022/03/25 05:09:59;;;;;;;44.78;26.45;;;6.20;99.90;;;;;;5013776;28;20259;-46
2022/03/25 05:12:26;;;;;;;45.05;25.00;;;6.20;99.90;;;;;;5015110;28;20211;-46
2022/03/25 05:14:52;;;;;;;39.78;23.70;;;6.10;99.90;;;;;;5015557;28;20180;-47
2022/03/25 05:17:17;;;;;;;47.95;24.85;;;5.90;99.90;;;;;;5014939;28;20186;-47
2022/03/25 05:19:43;;;;;;;43.53;23.60;;;5.80;99.90;;;;;;5014869;28;20632;-46
2022/03/25 05:22:09;;;;;;;38.95;24.23;;;5.90;99.90;;;;;;5014842;28;20179;-47
2022/03/25 05:24:34;;;;;;;48.78;24.50;;;5.90;99.90;;;;;;5014963;28;20164;-46
2022/03/25 05:27:00;;;;;;;40.55;25.38;;;5.90;99.90;;;;;;5014642;28;20176;-46
2022/03/25 05:29:26;;;;;;;40.65;24.35;;;6.00;99.90;;;;;;5014653;28;20171;-46
2022/03/25 05:31:52;;;;;;;49.55;25.20;;;5.80;99.90;;;;;;5014836;28;20206;-46
2022/03/25 05:34:18;;;;;;;43.83;24.83;;;5.90;99.90;;;;;;5014890;28;20525;-47
2022/03/25 05:36:43;;;;;;;44.38;24.10;;;5.80;99.90;;;;;;5014540;28;20179;-46
2022/03/25 05:39:09;;;;;;;47.13;22.50;;;5.90;99.90;;;;;;5014476;28;20597;-48
2022/03/25 05:41:34;;;;;;;36.88;21.85;;;5.90;99.90;;;;;;5014689;28;20168;-47
2022/03/25 05:44:00;;;;;;;39.13;22.35;;;5.80;99.90;;;;;;5014278;28;20172;-46
2022/03/25 05:46:26;;;;;;;46.55;23.55;;;5.90;99.90;;;;;;5014123;28;20214;-46
2022/03/25 05:48:51;;;;;;;40.78;23.40;;;5.80;99.90;;;;;;5014569;28;20211;-47
2022/03/25 05:51:17;;;;;;;43.78;24.17;;;5.70;99.90;;;;;;5013758;28;20195;-47
2022/03/25 05:53:43;;;;;;;46.53;25.05;;;5.80;99.90;;;;;;5014059;28;20258;-46
2022/03/25 05:56:10;;;;;;;43.40;25.90;;;5.90;99.90;;;;;;5012810;28;20168;-47
2022/03/25 05:58:37;;;;;;;44.90;24.15;;;6.00;99.90;;;;;;5014007;28;20164;-46
2022/03/25 06:01:04;;;;;;;52.95;25.48;;;6.00;99.90;;;;;;5013983;28;20179;-47
2022/03/25 06:03:33;;;;;;;39.83;24.05;;;6.10;99.90;;;;;;5013739;28;20176;-46
2022/03/25 06:06:00;;;;;;;43.97;24.70;;;6.10;99.90;;;;;;5013932;28;20188;-47
2022/03/25 06:08:26;;;;;;;40.85;23.05;;;6.20;99.90;;;;;;5012774;28;20283;-46
2022/03/25 06:10:51;;;;;;;42.20;24.27;;;6.10;99.90;;;;;;5014001;28;20184;-46
2022/03/25 06:13:17;;;;;;;45.72;25.33;;;6.10;99.90;;;;;;5014075;28;20172;-46
2022/03/25 06:15:44;;;;;;;49.22;25.77;;;6.10;99.90;;;;;;5013458;28;20204;-46
2022/03/25 06:18:09;;;;;;;41.25;25.83;;;6.30;99.90;;;;;;5012468;28;20180;-46
2022/03/25 06:20:35;;;;;;;44.80;26.58;;;6.40;99.90;;;;;;5013992;28;20620;-45
2022/03/25 06:23:01;;;;;;;44.03;25.08;;;6.50;99.90;;;;;;5013643;28;20168;-46
2022/03/25 06:25:27;;;;;;;44.70;27.35;;;6.70;99.90;;;;;;5013659;28;20179;-47
2022/03/25 06:27:57;;;;;;;46.58;26.52;;;6.70;99.90;;;;;;5013841;28;20164;-46
2022/03/25 06:30:26;;;;;;;43.60;26.38;;;6.80;99.90;;;;;;5013762;28;20176;-47
2022/03/25 06:32:52;;;;;;;46.03;27.25;;;6.80;99.90;;;;;;5013661;28;20203;-48
2022/03/25 06:35:17;;;;;;;47.17;26.40;;;6.90;99.90;;;;;;5013365;28;20179;-47
2022/03/25 06:37:44;;;;;;;47.10;28.27;;;6.90;99.90;;;;;;5013427;28;20585;-47
2022/03/25 06:40:10;;;;;;;50.45;26.65;;;7.00;99.90;;;;;;5013115;28;20221;-47
2022/03/25 06:42:37;;;;;;;47.72;26.35;;;7.10;99.90;;;;;;5013017;28;20271;-49
2022/03/25 06:45:08;;;;;;;48.28;27.23;;;7.10;99.90;;;;;;5013081;28;20174;-46
2022/03/25 06:47:34;;;;;;;45.15;26.90;;;7.20;99.90;;;;;;5012834;28;20250;-46
2022/03/25 06:50:01;;;;;;;44.85;26.88;;;7.20;99.90;;;;;;5013005;28;20171;-46
2022/03/25 06:52:27;;;;;;;48.05;27.52;;;7.30;99.90;;;;;;5013308;28;20207;-46
2022/03/25 06:54:53;;;;;;;47.90;28.88;;;7.50;99.90;;;;;;5013248;28;20164;-46
2022/03/25 06:57:18;;;;;;;48.38;28.02;;;7.50;99.90;;;;;;5013223;28;20176;-46
2022/03/25 06:59:44;;;;;;;47.33;27.92;;;7.60;99.90;;;;;;5012988;28;20639;-46
2022/03/25 07:02:11;;;;;;;53.20;30.60;;;7.70;99.90;;;;;;5013066;28;20180;-46
2022/03/25 07:04:37;;;;;;;55.58;28.45;;;7.80;99.90;;;;;;5012434;28;20562;-46
2022/03/25 07:07:05;;;;;;;51.65;28.13;;;7.80;99.90;;;;;;5012828;28;20199;-47
2022/03/25 07:09:31;;;;;;;52.75;29.70;;;7.80;99.90;;;;;;5012657;28;20164;-46
2022/03/25 07:11:57;;;;;;;49.20;29.00;;;8.00;99.90;;;;;;5012699;28;20564;-47
2022/03/25 07:14:23;;;;;;;57.25;30.48;;;8.10;99.90;;;;;;5011690;28;20234;-46
2022/03/25 07:16:49;;;;;;;56.75;30.10;;;8.10;99.90;;;;;;5012665;28;20180;-46
2022/03/25 07:19:14;;;;;;;52.63;31.27;;;8.10;99.90;;;;;;5012455;28;20178;-46
2022/03/25 07:21:40;;;;;;;52.42;31.63;;;8.30;99.90;;;;;;5012618;28;20259;-46
2022/03/25 07:24:06;;;;;;;52.55;30.52;;;8.30;99.90;;;;;;5012682;28;20214;-46
2022/03/25 07:26:31;;;;;;;49.83;30.75;;;8.40;99.90;;;;;;5012451;28;20654;-46
2022/03/25 07:28:57;;;;;;;45.72;30.80;;;8.60;99.90;;;;;;5012426;28;20241;-46
2022/03/25 07:31:28;;;;;;;55.65;32.72;;;8.80;99.90;;;;;;5012662;28;20227;-46
2022/03/25 07:33:56;;;;;;;52.95;31.75;;;8.90;99.90;;;;;;5012617;28;20644;-46
2022/03/25 07:36:22;;;;;;;48.85;31.25;;;9.00;99.90;;;;;;5012699;28;20534;-46
2022/03/25 07:38:48;;;;;;;57.90;34.75;;;9.20;99.90;;;;;;5012425;28;20168;-46
2022/03/25 07:41:13;;;;;;;60.03;34.28;;;9.10;99.90;;;;;;5012298;28;20168;-47
2022/03/25 07:43:39;;;;;;;53.83;33.45;;;9.20;99.90;;;;;;5012533;28;20259;-46
2022/03/25 07:46:05;;;;;;;56.55;33.97;;;9.30;99.90;;;;;;5012279;28;20215;-46
2022/03/25 07:48:31;;;;;;;53.60;34.03;;;9.40;99.90;;;;;;5012225;28;20624;-46
2022/03/25 07:50:57;;;;;;;58.75;34.85;;;9.40;99.90;;;;;;5012015;28;20239;-47
2022/03/25 07:53:23;;;;;;;57.85;35.78;;;9.50;99.90;;;;;;5012498;28;20192;-47
2022/03/25 07:55:50;;;;;;;55.03;34.90;;;9.60;99.90;;;;;;5012327;28;20168;-47
2022/03/25 07:58:19;;;;;;;54.88;34.45;;;9.70;99.90;;;;;;5012278;28;20179;-47
2022/03/25 08:00:46;;;;;;;59.72;35.88;;;9.80;99.90;;;;;;5012171;28;20167;-47
2022/03/25 08:03:12;;;;;;;61.33;36.30;;;10.00;99.90;;;;;;5011986;28;20199;-47
2022/03/25 08:05:38;;;;;;;53.45;34.95;;;10.00;99.90;;;;;;5012362;28;20172;-47
2022/03/25 08:08:04;;;;;;;57.25;36.30;;;10.20;99.90;;;;;;5012035;28;20222;-47
2022/03/25 08:10:31;;;;;;;58.80;34.67;;;10.30;99.90;;;;;;5012300;28;20230;-47
2022/03/25 08:12:58;;;;;;;58.45;37.10;;;10.40;99.90;;;;;;5011978;28;20741;-47
2022/03/25 08:15:25;;;;;;;56.33;36.55;;;10.60;99.90;;;;;;5015251;28;20160;-47
2022/03/25 08:17:57;;;;;;;57.78;36.85;;;10.60;99.90;;;;;;5016260;28;20658;-47
2022/03/25 08:20:29;;;;;;;57.08;36.97;;;10.60;99.90;;;;;;5016488;28;20183;-46
2022/03/25 08:22:56;;;;;;;57.40;36.90;;;10.80;99.90;;;;;;5016390;28;20247;-47
2022/03/25 08:28:06;;;;;;;62.33;37.58;;;11.10;99.90;;;;;;5016038;28;20199;-46
2022/03/25 08:30:32;;;;;;;60.20;35.45;;;11.10;99.90;;;;;;5014495;28;20172;-47
2022/03/25 08:32:59;;;;;;;54.00;37.40;;;11.30;99.90;;;;;;5015645;28;20195;-46
2022/03/25 08:35:25;;;;;;;57.15;37.05;;;11.50;99.90;;;;;;5015958;28;20210;-46
2022/03/25 08:37:51;;;;;;;56.63;37.13;;;11.60;99.90;;;;;;5015904;28;20168;-46
2022/03/25 08:40:16;;;;;;;60.85;39.42;;;11.70;99.90;;;;;;5015563;28;20252;-46
2022/03/25 08:42:42;;;;;;;56.92;37.28;;;11.80;99.90;;;;;;5015502;28;20171;-47
2022/03/25 08:45:08;;;;;;;63.33;38.55;;;12.00;99.90;;;;;;5015508;28;20648;-47
2022/03/25 08:47:34;;;;;;;56.20;37.22;;;12.00;99.90;;;;;;5015228;28;20224;-47
2022/03/25 08:50:00;;;;;;;51.78;38.30;;;12.00;99.90;;;;;;5015393;28;20164;-47
2022/03/25 08:52:25;;;;;;;53.05;37.08;;;12.20;99.90;;;;;;5015530;28;20231;-47
2022/03/25 08:54:52;;;;;;;58.17;39.28;;;12.20;99.90;;;;;;5015473;28;20623;-47
2022/03/25 08:57:17;;;;;;;55.10;36.88;;;12.40;99.90;;;;;;5015382;28;20172;-47
2022/03/25 08:59:43;;;;;;;52.38;37.40;;;12.60;99.90;;;;;;5015258;28;20227;-47
2022/03/25 09:02:09;;;;;;;60.55;38.50;;;12.60;99.90;;;;;;5015162;28;20172;-47
2022/03/25 09:04:35;;;;;;;55.67;35.42;;;12.70;99.90;;;;;;5015368;28;20180;-47
2022/03/25 09:07:00;;;;;;;56.08;36.17;;;12.80;99.90;;;;;;5015268;28;20176;-47
2022/03/25 09:09:26;;;;;;;60.20;37.42;;;12.90;99.90;;;;;;5015037;28;20172;-47
2022/03/25 09:11:51;;;;;;;56.08;35.95;;;13.00;99.90;;;;;;5015205;28;20208;-48
2022/03/25 09:14:17;;;;;;;51.33;34.20;;;13.10;99.90;;;;;;5015147;28;20165;-47
2022/03/25 09:16:44;;;;;;;54.08;32.78;;;13.20;99.90;;;;;;5014901;28;20526;-47
2022/03/25 09:19:09;;;;;;;59.03;35.17;;;13.30;99.90;;;;;;5014818;28;20748;-47
2022/03/25 09:21:35;;;;;;;45.45;31.85;;;13.50;99.90;;;;;;5014774;28;20168;-47
2022/03/25 09:24:00;;;;;;;51.00;33.38;;;13.60;99.90;;;;;;5013507;28;20176;-47
2022/03/25 09:26:26;;;;;;;52.97;32.47;;;13.70;99.90;;;;;;5014028;28;20206;-47
2022/03/25 09:28:51;;;;;;;48.05;31.50;;;13.70;99.90;;;;;;5014991;28;20165;-46
2022/03/25 09:31:18;;;;;;;50.92;32.15;;;13.90;99.90;;;;;;5014615;28;20211;-47
2022/03/25 09:33:44;;;;;;;47.40;31.50;;;13.90;99.90;;;;;;5014879;28;20227;-46
2022/03/25 09:36:09;;;;;;;53.20;34.28;;;14.00;99.90;;;;;;5014566;28;20172;-46
2022/03/25 09:38:35;;;;;;;55.80;34.60;;;14.00;99.90;;;;;;5014457;28;20196;-46
2022/03/25 09:41:05;;;;;;;44.47;32.13;;;14.20;99.90;;;;;;5014520;28;20172;-46
2022/03/25 09:43:31;;;;;;;50.28;33.88;;;14.20;99.90;;;;;;5014443;28;20172;-46
2022/03/25 09:45:57;;;;;;;47.88;32.75;;;14.40;99.90;;;;;;5014351;28;20311;-47
2022/03/25 09:48:22;;;;;;;45.92;31.60;;;14.40;99.90;;;;;;5014814;28;20187;-46
2022/03/25 09:50:48;;;;;;;46.72;33.03;;;14.50;99.90;;;;;;5014085;28;20164;-46
2022/03/25 09:53:13;;;;;;;42.95;31.20;;;14.60;99.90;;;;;;5014066;28;20227;-46
2022/03/25 09:55:42;;;;;;;48.55;30.50;;;14.70;99.90;;;;;;5014158;28;20171;-46
2022/03/25 09:58:09;;;;;;;47.30;29.75;;;14.80;99.90;;;;;;5014158;28;20590;-46
2022/03/25 10:00:35;;;;;;;46.10;30.83;;;14.90;99.90;;;;;;5014316;28;20535;-46
2022/03/25 10:03:01;;;;;;;49.85;31.35;;;15.00;99.90;;;;;;5012795;28;20219;-47
2022/03/25 10:05:27;;;;;;;39.97;28.80;;;15.10;99.90;;;;;;5013963;28;20168;-46
2022/03/25 10:07:55;;;;;;;45.90;27.92;;;15.20;99.90;;;;;;5014266;28;20169;-46
2022/03/25 10:10:23;;;;;;;38.30;27.27;;;15.20;99.90;;;;;;5014138;28;20175;-47
2022/03/25 10:13:05;;;;;;;41.90;27.50;;;15.40;99.90;;;;;;5013914;28;20567;-47
2022/03/25 10:15:33;;;;;;;40.67;27.48;;;15.50;99.90;;;;;;5013793;28;20261;-47
2022/03/25 10:18:03;;;;;;;36.80;25.58;;;15.50;99.90;;;;;;5013744;28;20168;-46
2022/03/25 10:20:38;;;;;;;42.20;27.02;;;15.60;99.90;;;;;;5013901;28;20212;-47
2022/03/25 10:23:13;;;;;;;43.05;27.38;;;15.70;99.90;;;;;;5013204;28;20171;-47
2022/03/25 10:25:45;;;;;;;45.90;26.67;;;15.70;99.90;;;;;;5013936;28;20174;-46
2022/03/25 10:28:31;;;;;;;41.28;26.15;;;15.90;99.90;;;;;;5013259;28;20226;-46
2022/03/25 10:31:02;;;;;;;41.05;25.17;;;16.00;99.90;;;;;;5013309;28;20643;-46
2022/03/25 10:33:31;;;;;;;45.25;26.50;;;16.10;99.90;;;;;;5013539;28;20192;-46
2022/03/25 10:36:08;;;;;;;32.92;22.90;;;16.30;99.90;;;;;;5013198;28;20168;-46
2022/03/25 10:39:05;;;;;;;42.80;26.30;;;16.20;99.90;;;;;;5012470;28;20195;-46
2022/03/25 10:41:41;;;;;;;39.67;26.33;;;16.30;99.90;;;;;;5013554;28;20238;-48
2022/03/25 10:44:08;;;;;;;39.40;25.42;;;16.50;99.90;;;;;;5012900;28;20194;-47
2022/03/25 10:46:41;;;;;;;40.85;24.85;;;16.60;99.90;;;;;;5012697;28;20212;-47
2022/03/25 10:49:12;;;;;;;38.28;22.40;;;16.70;99.90;;;;;;5013175;28;20172;-45
2022/03/25 10:51:43;;;;;;;35.85;22.40;;;16.90;99.90;;;;;;5012922;28;20253;-47
2022/03/25 10:54:11;;;;;;;38.00;23.08;;;16.90;99.80;;;;;;5012530;28;20183;-46
2022/03/25 10:56:48;;;;;;;28.58;17.67;;;16.90;99.90;;;;;;5012973;28;20667;-46
2022/03/25 10:59:26;;;;;;;13.73;6.10;;;16.40;97.20;;;;;;5012927;28;20164;-46
2022/03/25 11:01:57;;;;;;;28.40;8.30;;;16.50;90.60;;;;;;5013046;28;20172;-46
2022/03/25 11:04:24;;;;;;;21.58;8.52;;;16.70;89.50;;;;;;5013297;28;20172;-46
2022/03/25 11:06:50;;;;;;;16.27;7.95;;;16.90;87.20;;;;;;5013132;28;20233;-46
2022/03/25 11:09:17;;;;;;;16.45;8.93;;;17.10;89.50;;;;;;5013227;28;20168;-46
2022/03/25 11:11:45;;;;;;;29.10;7.97;;;17.10;87.00;;;;;;5012968;28;20207;-46
2022/03/25 11:14:11;;;;;;;10.57;7.10;;;17.00;82.40;;;;;;5012492;28;20203;-46
2022/03/25 11:16:42;;;;;;;15.52;9.88;;;17.10;83.50;;;;;;5012572;28;20644;-46
2022/03/25 11:19:09;;;;;;;12.07;5.43;;;17.10;82.60;;;;;;5012644;28;20174;-46
2022/03/25 11:21:39;;;;;;;19.38;7.38;;;17.00;78.80;;;;;;5012711;28;20203;-46
2022/03/25 11:24:12;;;;;;;17.77;9.45;;;17.30;82.30;;;;;;4995168;28;20509;-46
2022/03/25 11:26:41;;;;;;;22.63;7.30;;;17.20;79.50;;;;;;5012137;28;20176;-46
2022/03/25 11:29:13;;;;;;;16.92;8.90;;;17.20;80.90;;;;;;5012786;28;20172;-46
2022/03/25 11:32:05;;;;;;;27.30;11.73;;;17.20;80.20;;;;;;5012448;28;20258;-46
2022/03/25 11:34:31;;;;;;;17.98;10.55;;;17.30;81.10;;;;;;5012645;28;20164;-46
2022/03/25 11:37:22;;;;;;;23.40;11.40;;;17.20;79.80;;;;;;5012111;28;20517;-46
2022/03/25 11:40:14;;;;;;;19.27;11.23;;;17.30;80.50;;;;;;5012245;28;20172;-45
2022/03/25 11:42:49;;;;;;;15.35;9.32;;;17.30;80.10;;;;;;5012228;28;20218;-45
2022/03/25 11:45:32;;;;;;;14.32;9.02;;;17.10;80.00;;;;;;5012444;28;20179;-45
2022/03/25 11:48:02;;;;;;;23.60;11.55;;;17.20;78.00;;;;;;5012057;28;20223;-45
2022/03/25 11:50:33;;;;;;;18.60;9.48;;;17.30;78.20;;;;;;5012104;28;20269;-45
2022/03/25 11:53:19;;;;;;;18.05;10.82;;;17.50;77.00;;;;;;5011884;28;20200;-45
2022/03/25 11:55:55;;;;;;;28.08;11.60;;;17.60;76.40;;;;;;5012031;28;20573;-45
2022/03/25 11:58:21;;;;;;;20.63;12.05;;;17.60;78.40;;;;;;5012149;28;20663;-45
2022/03/25 12:00:53;;;;;;;17.98;10.32;;;17.60;77.60;;;;;;5011589;28;20305;-46
2022/03/25 12:03:20;;;;;;;15.45;8.95;;;17.40;76.50;;;;;;5010839;28;20571;-46
2022/03/25 12:06:02;;;;;;;19.30;9.43;;;17.50;75.50;;;;;;5012292;28;20259;-45
2022/03/25 12:08:29;;;;;;;24.83;12.02;;;17.50;74.60;;;;;;5011982;28;20557;-45
2022/03/25 12:11:02;;;;;;;18.45;10.20;;;17.60;76.10;;;;;;5013752;28;20176;-45
2022/03/25 12:13:53;;;;;;;19.88;11.18;;;17.60;76.60;;;;;;5020329;28;20187;-46
2022/03/25 12:16:44;;;;;;;19.88;10.85;;;17.50;75.20;;;;;;5022661;28;20179;-45
2022/03/25 12:19:31;;;;;;;22.85;12.60;;;17.50;74.60;;;;;;5022736;28;20255;-45
2022/03/25 12:22:19;;;;;;;19.73;11.90;;;17.60;74.60;;;;;;5023946;28;20167;-45
2022/03/25 12:24:45;;;;;;;16.80;11.45;;;17.60;75.10;;;;;;5031643;28;20175;-45
2022/03/25 12:27:11;;;;;;;20.92;12.82;;;17.70;76.00;;;;;;5031933;28;20593;-45
2022/03/25 12:29:42;;;;;;;20.77;10.25;;;17.70;76.20;;;;;;5030890;28;20259;-45
2022/03/25 12:32:10;;;;;;;23.10;14.20;;;17.60;76.00;;;;;;5031244;28;20211;-45
2022/03/25 12:34:53;;;;;;;18.23;9.25;;;17.60;75.80;;;;;;5031509;28;20176;-45
2022/03/25 12:37:31;;;;;;;20.90;11.98;;;17.70;76.40;;;;;;5031317;28;20659;-45